Terminal Aerodrome Forecast
Issued by NWS

Home | Current Version | Previous Version | Text Only | Print | Product List | Glossary On
Versions: 1 2 3 4 5 6 7 8 9 10 11 12
000
FTUS46 KSGX 251100
TAFONT
TAF
KONT 251129Z 2512/2618 VRB04KT P6SM FEW090
     FM251900 25012KT P6SM SCT090
     FM260300 VRB04KT P6SM SKC
     FM260900 VRB04KT 4SM BR BKN009
     FM261600 VRB04KT 6SM BR SCT010=

USA.gov is the U.S. government's official web portal to all federal, state and local government web resources and services.